Echo, Minnesota
Current Conditions -  °F | °C
As of 5:12 AM on Monday 22 Dec 2014 (Local Time) from KGDB Reporting Station
Haze Haze  
Wind Chill: 30°   Ceiling: 400
Heat Index: 38°   Visibility: 5mi
Dew Point: 37°   Wind: 12mph
Humidity: 98%   Direction: 130°SE
Pressure: 29.54"   Gusts: NA
Location:  44.62°N, 95.42°W
Report Text: KGDB 221112Z AUTO 13010KT 5SM BR OVC004 03/03 A2954 RMK AO2 T00330030
Loading
Personal Weather Stations






























Interactive Weather Map New forecast layout! Learn more

10-Day Weather Forecast

Advertisements
Track Severe Weather on mobile